Cole Camp, MO (65325)

3:10 AM CDT on September 19, 2014 (GMT -0500)
Sedalia Memorial | Change Station
CLOSE
Current Station
Airport
Location: Sedalia,
Elevation: 909 ft
Nearby Weather Stations

Elev 909 ft 38.71 °N, 93.18 °W | Updated 17 minutes ago

Mostly Cloudy
Mostly Cloudy
59 °F
Feels Like 59 °F
N
5
Wind Variable Wind from SE

Today
High -- | Low -- °F
--% Chance of Precip.
Yesterday
High -- | Low -- °F
Precip. -- in
6:57 AM 7:14 PM
Waning Crescent, 21% visible
Pressure 30.04 in
Visibility 0.2 miles
Clouds
Dew Point 57 °F
Humidity 93%
Rainfall 0.00 in
Snow Depth Not available.
UV Not available.
Pollen 5.90 out of 12
Air Quality Not available.
Flu Activity Not available.
METAR KDMO 190753Z AUTO 14004KT 1/4SM FG VV001 15/14 A3005 RMK AO2 SLP171 T01500139

More Conditions Fewer Conditions

Pressure 30.04 in
Visibility 0.2 miles
Clouds
Dew Point 57 °F
Humidity 93%
Rainfall 0.00 in
Snow Depth Not available.
UV Not available.
Pollen 5.90 out of 12
Air Quality Not available.
Flu Activity Not available.
METAR KDMO 190753Z AUTO 14004KT 1/4SM FG VV001 15/14 A3005 RMK AO2 SLP171 T01500139

More Conditions Fewer Conditions

10-Day Weather Forecast

Almanac

Astronomy

Sep. 19, 2014 Rise Set
Actual Time 6:57 AM CDT 7:14 PM CDT
Civil Twilight 6:31 AM CDT 7:41 PM CDT
Nautical Twilight 6:00 AM CDT 8:12 PM CDT
Astronomical Twilight 5:28 AM CDT 8:43 PM CDT
Moon 2:46 AM CDT 4:41 PM CDT
Length of Visible Light 13h 09m
Length of Day
12h 16m
Tomorrow will be 2m 28s shorter.
Waning Crescent, 21% of the Moon is Illuminated
Today
Waning Crescent
Sep 24
New
Oct 1
First Quarter
Oct 8
Full
Oct 15
Last Quarter

Today's Extremes

State Highs State Lows

Community

WunderPhotos

Upload Photos

1,754,579 photos uploaded!

Nearby

Snow Depth

Station Depth Elevation
No new snow has been reported.

Earthquake Activity

City Distance Mag. Time & Date
No recent earthquake activity has been reported nearby.
Minimum magnitude displayed is 2.5.

Coastal Water Temperatures

Place Temperature
No Stations Reporting

Nearby Weather Stations